createdAt,value
2022-12-01T00:04:37.577Z,101491.75
2022-12-01T00:09:58.213Z,101483.81
2022-12-01T00:15:01.245Z,101490.94
2022-12-01T00:20:03.520Z,101487.13
2022-12-01T00:25:05.522Z,101482.75
2022-12-01T00:30:10.222Z,101474.56
2022-12-01T00:35:13.084Z,101464.75
2022-12-01T00:40:15.078Z,101456.56
2022-12-01T00:45:17.106Z,101458.72
2022-12-01T00:50:18.994Z,101460.88
2022-12-01T00:55:20.932Z,101455.34
2022-12-01T01:00:22.928Z,101454.19
2022-12-01T01:05:41.039Z,101454.94
2022-12-01T01:10:46.463Z,101468.81
2022-12-01T01:16:01.439Z,101460.56
2022-12-01T01:21:09.159Z,101458.91
2022-12-01T01:26:20.526Z,101473.59
2022-12-01T01:31:24.733Z,101467.31
2022-12-01T01:36:27.134Z,101468.13
2022-12-01T01:41:31.772Z,101469.22
2022-12-01T01:46:39.317Z,101470.84
2022-12-01T01:51:46.215Z,101473.59
2022-12-01T01:56:51.030Z,101461.03
2022-12-01T02:05:21.159Z,101460.47
2022-12-01T02:10:39.835Z,101458.22
2022-12-01T02:16:00.433Z,101463.69
2022-12-01T02:21:28.181Z,101465.81
2022-12-01T02:27:29.330Z,101461.44
2022-12-01T02:32:38.989Z,101464.69
2022-12-01T02:37:43.685Z,101453.44
2022-12-01T02:43:02.258Z,101457.25
2022-12-01T02:48:10.813Z,101450.16
2022-12-01T02:53:18.289Z,101451.22
2022-12-01T02:58:21.489Z,101446.03
2022-12-01T03:04:05.311Z,101440.81
2022-12-01T03:09:33.648Z,101439.16
2022-12-01T03:14:57.497Z,101433.16
2022-12-01T03:20:20.100Z,101436.94
2022-12-01T03:25:26.543Z,101434.97
2022-12-01T03:30:36.923Z,101433.81
2022-12-01T03:35:47.067Z,101431.00
2022-12-01T03:40:59.387Z,101436.94
2022-12-01T03:46:12.625Z,101428.78
2022-12-01T03:51:20.442Z,101429.59
2022-12-01T03:56:26.348Z,101423.31
2022-12-01T04:07:55.791Z,101422.84
2022-12-01T04:13:00.135Z,101421.75
2022-12-01T04:18:07.654Z,101414.16
2022-12-01T04:23:32.978Z,101417.47
2022-12-01T04:28:34.870Z,101419.94
2022-12-01T04:33:36.816Z,101415.81
2022-12-01T04:38:38.789Z,101418.78
2022-12-01T04:43:41.355Z,101415.25
2022-12-01T04:48:43.609Z,101417.13
2022-12-01T04:53:45.542Z,101419.84
2022-12-01T04:58:53.687Z,101415.72
2022-12-01T05:03:55.810Z,101423.06
2022-12-01T05:09:00.166Z,101418.47
2022-12-01T05:14:02.225Z,101415.72
2022-12-01T05:32:59.930Z,101422.41
2022-12-01T05:38:07.756Z,101425.13
2022-12-01T05:43:10.209Z,101430.84
2022-12-01T05:48:13.385Z,101432.50
2022-12-01T05:53:15.419Z,101427.63
2022-12-01T05:58:17.359Z,101442.88
2022-12-01T06:03:19.418Z,101452.13
2022-12-01T06:08:21.452Z,101459.22
2022-12-01T06:13:23.441Z,101465.50
2022-12-01T06:18:27.105Z,101455.19
2022-12-01T06:23:30.722Z,101471.28
2022-12-01T06:28:33.828Z,101466.31
2022-12-01T06:33:35.837Z,101471.78
2022-12-01T06:38:37.795Z,101467.41
2022-12-01T06:43:39.667Z,101482.66
2022-12-01T06:48:41.805Z,101483.50
2022-12-01T06:53:43.723Z,101489.75
2022-12-01T06:58:54.472Z,101485.97
2022-12-01T07:03:56.902Z,101491.06
2022-12-01T07:09:19.324Z,101490.25
2022-12-01T07:14:26.839Z,101509.91
2022-12-01T07:19:28.811Z,101504.44
2022-12-01T07:24:32.831Z,101501.72
2022-12-01T07:29:34.839Z,101503.63
2022-12-01T07:34:36.782Z,101510.47
2022-12-01T07:39:40.206Z,101518.16
2022-12-01T07:44:51.556Z,101524.19
2022-12-01T07:49:59.324Z,101528.66
2022-12-01T07:55:01.199Z,101529.81
2022-12-01T08:00:08.591Z,101523.97
2022-12-01T08:05:42.793Z,101528.41
2022-12-01T08:10:45.159Z,101538.91
2022-12-01T08:15:48.827Z,101546.59
2022-12-01T08:20:51.560Z,101548.25
2022-12-01T08:25:54.086Z,101544.94
2022-12-01T08:30:57.153Z,101555.84
2022-12-01T08:36:02.773Z,101558.06
2022-12-01T08:41:08.420Z,101562.47
2022-12-01T08:46:12.705Z,101565.78
2022-12-01T08:51:18.582Z,101554.53
2022-12-01T08:56:24.513Z,101564.34
2022-12-01T09:01:48.756Z,101571.22
2022-12-01T09:06:54.402Z,101570.00
2022-12-01T09:11:56.883Z,101574.22
2022-12-01T09:16:59.115Z,101582.47
2022-12-01T09:22:02.698Z,101580.81
2022-12-01T09:27:07.175Z,101585.44
2022-12-01T09:32:09.293Z,101594.22
2022-12-01T09:37:11.273Z,101591.56
2022-12-01T09:42:16.641Z,101598.50
2022-12-01T09:47:19.397Z,101609.56
2022-12-01T09:52:23.232Z,101599.34
2022-12-01T09:57:36.861Z,101607.59
2022-12-01T10:02:50.996Z,101608.19
2022-12-01T10:08:00.762Z,101608.59
2022-12-01T10:13:03.054Z,101604.91
2022-12-01T10:18:35.651Z,101598.38
2022-12-01T10:23:56.285Z,101594.88
2022-12-01T10:29:03.192Z,101579.47
2022-12-01T10:34:14.229Z,101567.34
2022-12-01T10:39:43.564Z,101569.22
2022-12-01T10:44:45.870Z,101558.75
2022-12-01T10:49:51.490Z,101560.91
2022-12-01T10:54:53.803Z,101554.06
2022-12-01T11:00:07.163Z,101545.19
2022-12-01T11:05:33.138Z,101542.38
2022-12-01T11:10:37.634Z,101539.53
2022-12-01T11:15:51.336Z,101537.38
2022-12-01T11:21:08.431Z,101528.94
2022-12-01T11:26:25.916Z,101518.22
2022-12-01T11:31:45.605Z,101510.19
2022-12-01T11:36:51.448Z,101509.78
2022-12-01T11:42:02.999Z,101500.38
2022-12-01T11:47:23.189Z,101490.72
2022-12-01T11:57:35.181Z,101500.44
2022-12-01T12:07:54.731Z,101482.84
2022-12-01T12:13:26.997Z,101477.34
2022-12-01T12:18:50.803Z,101471.34
2022-12-01T12:24:38.156Z,101459.13
2022-12-01T12:30:09.430Z,101462.69
2022-12-01T12:35:50.775Z,101452.53
2022-12-01T12:41:02.177Z,101452.72
2022-12-01T12:46:14.254Z,101439.56
2022-12-01T12:51:27.737Z,101449.41
2022-12-01T12:56:31.917Z,101441.91
2022-12-01T13:02:11.504Z,101431.03
2022-12-01T13:07:15.858Z,101434.13
2022-12-01T13:12:43.644Z,101427.16
2022-12-01T13:18:02.675Z,101431.22
2022-12-01T13:23:05.578Z,101415.00
2022-12-01T13:28:25.784Z,101413.94
2022-12-01T13:33:28.852Z,101401.72
2022-12-01T13:38:33.777Z,101396.75
2022-12-01T13:43:37.542Z,101395.28
2022-12-01T13:48:42.158Z,101390.09
2022-12-01T13:54:24.829Z,101394.13
2022-12-01T13:59:42.157Z,101386.38
2022-12-01T14:04:44.196Z,101391.94
2022-12-01T14:09:48.101Z,101388.75
2022-12-01T14:15:04.300Z,101379.50
2022-12-01T14:20:27.617Z,101384.72
2022-12-01T14:25:31.737Z,101384.38
2022-12-01T14:30:44.461Z,101391.34
2022-12-01T14:35:46.528Z,101382.88
2022-12-01T14:40:49.018Z,101390.56
2022-12-01T14:46:07.916Z,101393.28
2022-12-01T14:51:15.479Z,101387.78
2022-12-01T14:56:35.794Z,101384.19
2022-12-01T15:01:38.384Z,101386.13
2022-12-01T15:06:40.660Z,101389.44
2022-12-01T15:12:14.771Z,101391.63
2022-12-01T15:17:37.858Z,101397.16
2022-12-01T15:22:41.057Z,101397.72
2022-12-01T15:27:43.517Z,101396.09
2022-12-01T15:32:47.834Z,101398.00
2022-12-01T15:37:54.674Z,101397.47
2022-12-01T15:43:35.135Z,101395.56
2022-12-01T15:48:48.313Z,101392.84
2022-12-01T15:54:05.453Z,101399.69
2022-12-01T15:59:23.365Z,101394.50
2022-12-01T16:04:42.556Z,101401.06
2022-12-01T16:10:29.172Z,101404.09
2022-12-01T16:15:44.021Z,101400.50
2022-12-01T16:20:46.847Z,101398.84
2022-12-01T16:25:50.532Z,101401.59
2022-12-01T16:30:53.155Z,101407.59
2022-12-01T16:35:56.173Z,101398.81
2022-12-01T16:41:00.304Z,101402.06
2022-12-01T16:46:08.710Z,101407.00
2022-12-01T16:51:14.571Z,101406.72
2022-12-01T16:56:16.754Z,101421.50
2022-12-01T17:01:23.315Z,101423.66
2022-12-01T17:06:26.723Z,101429.66
2022-12-01T17:11:28.742Z,101436.78
2022-12-01T17:16:30.752Z,101443.06
2022-12-01T17:21:32.765Z,101445.50
2022-12-01T17:26:35.601Z,101449.59
2022-12-01T17:31:37.641Z,101451.22
2022-12-01T17:36:45.174Z,101457.78
2022-12-01T17:41:47.193Z,101461.28
2022-12-01T17:46:49.263Z,101466.22
2022-12-01T17:51:51.379Z,101467.00
2022-12-01T17:56:53.515Z,101471.91
2022-12-01T18:01:56.911Z,101467.81
2022-12-01T18:06:59.705Z,101478.44
2022-12-01T18:12:01.675Z,101477.34
2022-12-01T18:17:05.824Z,101488.25
2022-12-01T18:22:12.233Z,101495.88
2022-12-01T18:27:14.286Z,101492.28
2022-12-01T18:32:20.074Z,101492.50
2022-12-01T18:37:24.371Z,101497.38
2022-12-01T18:42:26.413Z,101497.34
2022-12-01T18:47:29.461Z,101501.69
2022-12-01T18:52:35.203Z,101509.56
2022-12-01T18:57:37.227Z,101511.41
2022-12-01T19:02:39.247Z,101519.31
2022-12-01T19:07:41.275Z,101522.31
2022-12-01T19:12:43.475Z,101533.75
2022-12-01T19:17:46.335Z,101528.56
2022-12-01T19:22:49.979Z,101531.53
2022-12-01T19:33:34.159Z,101536.44
2022-12-01T19:38:40.706Z,101543.47
2022-12-01T19:43:44.082Z,101549.94
2022-12-01T19:48:47.178Z,101551.16
2022-12-01T19:53:49.245Z,101549.16
2022-12-01T19:58:51.365Z,101555.63
2022-12-01T20:03:54.900Z,101556.34
2022-12-01T20:09:06.604Z,101562.50
2022-12-01T20:14:10.123Z,101562.88
2022-12-01T20:19:12.472Z,101562.25
2022-12-01T20:24:22.337Z,101568.13
2022-12-01T20:29:27.049Z,101575.16
2022-12-01T20:34:35.003Z,101573.69
2022-12-01T20:39:38.769Z,101569.75
2022-12-01T20:44:40.704Z,101573.72
2022-12-01T20:49:50.475Z,101578.50
2022-12-01T20:54:54.864Z,101568.59
2022-12-01T20:59:56.733Z,101577.69
2022-12-01T21:04:59.369Z,101573.69
2022-12-01T21:10:04.710Z,101572.16
2022-12-01T21:15:17.800Z,101575.38
2022-12-01T21:20:36.054Z,101587.09
2022-12-01T21:25:42.615Z,101582.13
2022-12-01T21:30:46.238Z,101583.81
2022-12-01T21:36:00.991Z,101592.09
2022-12-01T21:41:13.045Z,101590.56
2022-12-01T21:46:18.919Z,101581.09
2022-12-01T21:51:23.726Z,101582.06
2022-12-01T21:56:32.872Z,101582.06
2022-12-01T22:01:35.511Z,101580.41
2022-12-01T22:06:47.300Z,101580.75
2022-12-01T22:12:10.991Z,101583.22
2022-12-01T22:17:22.197Z,101584.78
2022-12-01T22:22:38.969Z,101593.88
2022-12-01T22:27:44.058Z,101593.16
2022-12-01T22:33:00.681Z,101590.09
2022-12-01T22:38:11.479Z,101586.53
2022-12-01T22:43:19.195Z,101589.59
2022-12-01T22:48:36.852Z,101594.09
2022-12-01T22:53:39.787Z,101593.63
2022-12-01T22:58:41.939Z,101593.41
2022-12-01T23:03:43.956Z,101595.88
2022-12-01T23:08:46.420Z,101595.88
2022-12-01T23:13:48.259Z,101601.81
2022-12-01T23:18:51.078Z,101591.97
2022-12-01T23:23:53.057Z,101590.78
2022-12-01T23:29:01.600Z,101589.13
2022-12-01T23:34:13.836Z,101574.72
2022-12-01T23:39:23.712Z,101582.09
2022-12-01T23:44:32.319Z,101580.06
2022-12-01T23:49:35.592Z,101584.78
2022-12-01T23:54:38.831Z,101583.28
2022-12-01T23:59:40.839Z,101579.28
